sensor_id;sensor_type;location;lat;lon;timestamp;P1;durP1;ratioP1;P2;durP2;ratioP2
44137;SDS011;29800;55.942;37.314;2023-06-26T00:00:58;20.90;;;14.30;;
44137;SDS011;29800;55.942;37.314;2023-06-26T00:03:24;19.17;;;13.35;;
44137;SDS011;29800;55.942;37.314;2023-06-26T00:05:50;20.33;;;13.38;;
44137;SDS011;29800;55.942;37.314;2023-06-26T00:08:16;20.67;;;13.63;;
44137;SDS011;29800;55.942;37.314;2023-06-26T00:10:43;21.88;;;13.45;;
44137;SDS011;29800;55.942;37.314;2023-06-26T00:13:09;22.08;;;13.00;;
44137;SDS011;29800;55.942;37.314;2023-06-26T00:15:38;19.17;;;12.93;;
44137;SDS011;29800;55.942;37.314;2023-06-26T00:18:05;18.08;;;12.95;;
44137;SDS011;29800;55.942;37.314;2023-06-26T00:20:31;19.35;;;13.48;;
44137;SDS011;29800;55.942;37.314;2023-06-26T00:22:59;23.90;;;12.98;;
44137;SDS011;29800;55.942;37.314;2023-06-26T00:25:26;19.10;;;13.10;;
44137;SDS011;29800;55.942;37.314;2023-06-26T00:27:52;27.60;;;13.65;;
44137;SDS011;29800;55.942;37.314;2023-06-26T00:30:18;27.33;;;13.40;;
44137;SDS011;29800;55.942;37.314;2023-06-26T00:32:45;22.17;;;14.02;;
44137;SDS011;29800;55.942;37.314;2023-06-26T00:35:11;23.27;;;12.73;;
44137;SDS011;29800;55.942;37.314;2023-06-26T00:37:38;24.73;;;13.65;;
44137;SDS011;29800;55.942;37.314;2023-06-26T00:40:04;25.13;;;13.45;;
44137;SDS011;29800;55.942;37.314;2023-06-26T00:42:32;18.63;;;13.30;;
44137;SDS011;29800;55.942;37.314;2023-06-26T00:44:59;23.00;;;13.35;;
44137;SDS011;29800;55.942;37.314;2023-06-26T00:47:25;23.70;;;12.63;;
44137;SDS011;29800;55.942;37.314;2023-06-26T00:49:53;24.73;;;12.80;;
44137;SDS011;29800;55.942;37.314;2023-06-26T00:52:21;28.45;;;12.98;;
44137;SDS011;29800;55.942;37.314;2023-06-26T00:54:50;19.83;;;12.50;;
44137;SDS011;29800;55.942;37.314;2023-06-26T00:57:18;19.42;;;12.68;;
44137;SDS011;29800;55.942;37.314;2023-06-26T00:59:44;18.55;;;11.82;;
44137;SDS011;29800;55.942;37.314;2023-06-26T01:02:10;21.95;;;12.38;;
44137;SDS011;29800;55.942;37.314;2023-06-26T01:04:37;20.05;;;12.35;;
44137;SDS011;29800;55.942;37.314;2023-06-26T01:07:05;22.05;;;12.18;;
44137;SDS011;29800;55.942;37.314;2023-06-26T01:09:33;21.35;;;11.70;;
44137;SDS011;29800;55.942;37.314;2023-06-26T01:12:00;18.25;;;11.32;;
44137;SDS011;29800;55.942;37.314;2023-06-26T01:14:26;15.77;;;10.90;;
44137;SDS011;29800;55.942;37.314;2023-06-26T01:16:52;17.58;;;11.07;;
44137;SDS011;29800;55.942;37.314;2023-06-26T01:19:23;16.67;;;10.65;;
44137;SDS011;29800;55.942;37.314;2023-06-26T01:22:36;14.25;;;10.13;;
44137;SDS011;29800;55.942;37.314;2023-06-26T01:27:50;16.42;;;10.35;;
44137;SDS011;29800;55.942;37.314;2023-06-26T01:30:18;12.32;;;9.48;;
44137;SDS011;29800;55.942;37.314;2023-06-26T01:32:46;15.40;;;10.00;;
44137;SDS011;29800;55.942;37.314;2023-06-26T01:35:14;18.00;;;9.73;;
44137;SDS011;29800;55.942;37.314;2023-06-26T01:37:41;14.50;;;9.68;;
44137;SDS011;29800;55.942;37.314;2023-06-26T01:40:08;15.30;;;9.25;;
44137;SDS011;29800;55.942;37.314;2023-06-26T01:42:35;13.60;;;9.27;;
44137;SDS011;29800;55.942;37.314;2023-06-26T01:45:03;17.17;;;9.63;;
44137;SDS011;29800;55.942;37.314;2023-06-26T01:47:38;16.52;;;10.40;;
44137;SDS011;29800;55.942;37.314;2023-06-26T01:50:11;15.18;;;9.30;;
44137;SDS011;29800;55.942;37.314;2023-06-26T01:52:54;13.35;;;9.38;;
44137;SDS011;29800;55.942;37.314;2023-06-26T01:55:47;14.25;;;9.75;;
44137;SDS011;29800;55.942;37.314;2023-06-26T01:58:19;15.90;;;9.75;;
44137;SDS011;29800;55.942;37.314;2023-06-26T02:00:50;17.73;;;9.52;;
44137;SDS011;29800;55.942;37.314;2023-06-26T02:03:17;13.65;;;9.13;;
44137;SDS011;29800;55.942;37.314;2023-06-26T02:05:43;12.68;;;8.73;;
44137;SDS011;29800;55.942;37.314;2023-06-26T02:08:10;14.25;;;9.07;;
44137;SDS011;29800;55.942;37.314;2023-06-26T02:10:48;13.43;;;9.05;;
44137;SDS011;29800;55.942;37.314;2023-06-26T02:13:17;14.05;;;9.00;;
44137;SDS011;29800;55.942;37.314;2023-06-26T02:15:44;11.73;;;9.57;;
44137;SDS011;29800;55.942;37.314;2023-06-26T02:18:10;12.55;;;8.88;;
44137;SDS011;29800;55.942;37.314;2023-06-26T02:20:37;12.60;;;9.27;;
44137;SDS011;29800;55.942;37.314;2023-06-26T02:23:03;12.18;;;8.93;;
44137;SDS011;29800;55.942;37.314;2023-06-26T02:25:29;13.63;;;9.27;;
44137;SDS011;29800;55.942;37.314;2023-06-26T02:27:55;14.82;;;10.02;;
44137;SDS011;29800;55.942;37.314;2023-06-26T02:30:22;20.88;;;10.93;;
44137;SDS011;29800;55.942;37.314;2023-06-26T02:32:48;18.52;;;10.60;;
44137;SDS011;29800;55.942;37.314;2023-06-26T02:35:14;16.52;;;10.60;;
44137;SDS011;29800;55.942;37.314;2023-06-26T02:37:42;18.23;;;10.93;;
44137;SDS011;29800;55.942;37.314;2023-06-26T02:40:09;18.58;;;7.90;;
44137;SDS011;29800;55.942;37.314;2023-06-26T02:42:37;12.52;;;8.43;;
44137;SDS011;29800;55.942;37.314;2023-06-26T02:45:04;12.80;;;8.38;;
44137;SDS011;29800;55.942;37.314;2023-06-26T02:47:32;12.48;;;8.10;;
44137;SDS011;29800;55.942;37.314;2023-06-26T02:49:59;16.35;;;8.43;;
44137;SDS011;29800;55.942;37.314;2023-06-26T02:52:42;10.15;;;7.88;;
44137;SDS011;29800;55.942;37.314;2023-06-26T02:55:09;10.38;;;7.53;;
44137;SDS011;29800;55.942;37.314;2023-06-26T02:57:35;10.52;;;8.20;;
44137;SDS011;29800;55.942;37.314;2023-06-26T03:00:02;11.68;;;8.05;;
44137;SDS011;29800;55.942;37.314;2023-06-26T03:02:34;11.63;;;9.20;;
44137;SDS011;29800;55.942;37.314;2023-06-26T03:05:00;10.82;;;7.90;;
44137;SDS011;29800;55.942;37.314;2023-06-26T03:07:28;9.63;;;7.65;;
44137;SDS011;29800;55.942;37.314;2023-06-26T03:09:55;10.07;;;7.65;;
44137;SDS011;29800;55.942;37.314;2023-06-26T03:12:22;11.32;;;8.23;;
44137;SDS011;29800;55.942;37.314;2023-06-26T03:14:48;10.85;;;8.57;;
44137;SDS011;29800;55.942;37.314;2023-06-26T03:17:14;11.48;;;7.82;;
44137;SDS011;29800;55.942;37.314;2023-06-26T03:19:43;8.98;;;7.60;;
44137;SDS011;29800;55.942;37.314;2023-06-26T03:22:21;11.38;;;8.27;;
44137;SDS011;29800;55.942;37.314;2023-06-26T03:24:47;13.38;;;9.38;;
44137;SDS011;29800;55.942;37.314;2023-06-26T03:27:14;9.93;;;7.20;;
44137;SDS011;29800;55.942;37.314;2023-06-26T03:29:43;10.63;;;8.00;;
44137;SDS011;29800;55.942;37.314;2023-06-26T03:32:09;13.45;;;9.60;;
44137;SDS011;29800;55.942;37.314;2023-06-26T03:34:36;11.93;;;7.90;;
44137;SDS011;29800;55.942;37.314;2023-06-26T03:37:02;16.58;;;8.05;;
44137;SDS011;29800;55.942;37.314;2023-06-26T03:39:29;12.07;;;7.97;;
44137;SDS011;29800;55.942;37.314;2023-06-26T03:41:56;12.90;;;9.35;;
44137;SDS011;29800;55.942;37.314;2023-06-26T03:44:26;12.60;;;9.45;;
44137;SDS011;29800;55.942;37.314;2023-06-26T03:46:53;11.52;;;8.00;;
44137;SDS011;29800;55.942;37.314;2023-06-26T03:49:20;21.92;;;12.85;;
44137;SDS011;29800;55.942;37.314;2023-06-26T03:51:46;23.50;;;13.10;;
44137;SDS011;29800;55.942;37.314;2023-06-26T03:54:13;17.33;;;11.40;;
44137;SDS011;29800;55.942;37.314;2023-06-26T03:56:41;15.80;;;10.73;;
44137;SDS011;29800;55.942;37.314;2023-06-26T03:59:08;13.07;;;9.07;;
44137;SDS011;29800;55.942;37.314;2023-06-26T04:01:35;13.15;;;9.50;;
44137;SDS011;29800;55.942;37.314;2023-06-26T04:04:04;12.73;;;9.27;;
44137;SDS011;29800;55.942;37.314;2023-06-26T04:06:32;10.57;;;8.63;;
44137;SDS011;29800;55.942;37.314;2023-06-26T04:09:00;17.40;;;11.18;;
44137;SDS011;29800;55.942;37.314;2023-06-26T04:11:26;15.88;;;9.02;;
44137;SDS011;29800;55.942;37.314;2023-06-26T04:13:53;13.88;;;9.73;;
44137;SDS011;29800;55.942;37.314;2023-06-26T04:16:20;14.95;;;9.48;;
44137;SDS011;29800;55.942;37.314;2023-06-26T04:18:51;19.48;;;12.60;;
44137;SDS011;29800;55.942;37.314;2023-06-26T04:21:18;13.88;;;10.50;;
44137;SDS011;29800;55.942;37.314;2023-06-26T04:23:45;16.58;;;12.55;;
44137;SDS011;29800;55.942;37.314;2023-06-26T04:26:13;18.27;;;12.02;;
44137;SDS011;29800;55.942;37.314;2023-06-26T04:28:40;17.08;;;12.20;;
44137;SDS011;29800;55.942;37.314;2023-06-26T04:31:07;13.07;;;10.27;;
44137;SDS011;29800;55.942;37.314;2023-06-26T04:33:34;17.27;;;12.43;;
44137;SDS011;29800;55.942;37.314;2023-06-26T04:36:04;22.63;;;13.48;;
44137;SDS011;29800;55.942;37.314;2023-06-26T04:38:31;17.80;;;13.48;;
44137;SDS011;29800;55.942;37.314;2023-06-26T04:40:59;12.98;;;9.88;;
44137;SDS011;29800;55.942;37.314;2023-06-26T04:43:26;18.45;;;12.10;;
44137;SDS011;29800;55.942;37.314;2023-06-26T04:45:53;21.05;;;13.50;;
44137;SDS011;29800;55.942;37.314;2023-06-26T04:48:19;18.80;;;13.27;;
44137;SDS011;29800;55.942;37.314;2023-06-26T04:50:45;17.85;;;10.27;;
44137;SDS011;29800;55.942;37.314;2023-06-26T04:53:22;19.85;;;12.30;;
44137;SDS011;29800;55.942;37.314;2023-06-26T04:55:49;20.00;;;13.25;;
44137;SDS011;29800;55.942;37.314;2023-06-26T04:58:16;17.15;;;10.93;;
44137;SDS011;29800;55.942;37.314;2023-06-26T05:00:43;21.27;;;12.35;;
44137;SDS011;29800;55.942;37.314;2023-06-26T05:03:11;18.98;;;12.02;;
44137;SDS011;29800;55.942;37.314;2023-06-26T05:05:38;20.65;;;12.02;;
44137;SDS011;29800;55.942;37.314;2023-06-26T05:08:14;19.23;;;11.52;;
44137;SDS011;29800;55.942;37.314;2023-06-26T05:10:42;18.15;;;11.73;;
44137;SDS011;29800;55.942;37.314;2023-06-26T05:13:09;19.48;;;10.90;;
44137;SDS011;29800;55.942;37.314;2023-06-26T05:15:35;12.15;;;7.97;;
44137;SDS011;29800;55.942;37.314;2023-06-26T05:18:02;16.73;;;9.80;;
44137;SDS011;29800;55.942;37.314;2023-06-26T05:20:29;13.85;;;9.57;;
44137;SDS011;29800;55.942;37.314;2023-06-26T05:22:55;15.13;;;8.40;;
44137;SDS011;29800;55.942;37.314;2023-06-26T05:25:22;13.20;;;8.02;;
44137;SDS011;29800;55.942;37.314;2023-06-26T05:27:50;14.50;;;8.90;;
44137;SDS011;29800;55.942;37.314;2023-06-26T05:30:16;13.82;;;8.52;;
44137;SDS011;29800;55.942;37.314;2023-06-26T05:32:43;12.98;;;8.48;;
44137;SDS011;29800;55.942;37.314;2023-06-26T05:35:12;13.25;;;8.02;;
44137;SDS011;29800;55.942;37.314;2023-06-26T05:37:39;11.75;;;7.75;;
44137;SDS011;29800;55.942;37.314;2023-06-26T05:40:07;9.82;;;6.25;;
44137;SDS011;29800;55.942;37.314;2023-06-26T05:42:34;11.82;;;7.32;;
44137;SDS011;29800;55.942;37.314;2023-06-26T05:45:01;9.88;;;7.13;;
44137;SDS011;29800;55.942;37.314;2023-06-26T05:47:29;11.32;;;6.20;;
44137;SDS011;29800;55.942;37.314;2023-06-26T05:49:56;11.60;;;7.15;;
44137;SDS011;29800;55.942;37.314;2023-06-26T05:52:22;13.27;;;7.25;;
44137;SDS011;29800;55.942;37.314;2023-06-26T05:54:49;10.60;;;7.05;;
44137;SDS011;29800;55.942;37.314;2023-06-26T05:57:15;9.48;;;6.20;;
44137;SDS011;29800;55.942;37.314;2023-06-26T05:59:42;10.02;;;5.93;;
44137;SDS011;29800;55.942;37.314;2023-06-26T06:02:09;9.68;;;6.53;;
44137;SDS011;29800;55.942;37.314;2023-06-26T06:04:35;10.15;;;5.60;;
44137;SDS011;29800;55.942;37.314;2023-06-26T06:07:03;10.15;;;5.18;;
44137;SDS011;29800;55.942;37.314;2023-06-26T06:09:29;8.45;;;5.50;;
44137;SDS011;29800;55.942;37.314;2023-06-26T06:11:56;8.90;;;6.40;;
44137;SDS011;29800;55.942;37.314;2023-06-26T06:14:22;7.32;;;5.07;;
44137;SDS011;29800;55.942;37.314;2023-06-26T06:16:48;7.65;;;4.95;;
44137;SDS011;29800;55.942;37.314;2023-06-26T06:19:15;7.10;;;4.90;;
44137;SDS011;29800;55.942;37.314;2023-06-26T06:21:41;8.70;;;5.30;;
44137;SDS011;29800;55.942;37.314;2023-06-26T06:24:08;7.50;;;4.82;;
44137;SDS011;29800;55.942;37.314;2023-06-26T06:26:35;6.72;;;5.43;;
44137;SDS011;29800;55.942;37.314;2023-06-26T06:29:02;8.32;;;4.40;;
44137;SDS011;29800;55.942;37.314;2023-06-26T06:31:29;7.30;;;5.07;;
44137;SDS011;29800;55.942;37.314;2023-06-26T06:33:55;7.70;;;5.88;;
44137;SDS011;29800;55.942;37.314;2023-06-26T06:36:22;6.72;;;4.88;;
44137;SDS011;29800;55.942;37.314;2023-06-26T06:38:48;7.28;;;5.40;;
44137;SDS011;29800;55.942;37.314;2023-06-26T06:41:14;8.57;;;6.38;;
44137;SDS011;29800;55.942;37.314;2023-06-26T06:43:42;7.20;;;5.10;;
44137;SDS011;29800;55.942;37.314;2023-06-26T06:46:09;9.30;;;5.20;;
44137;SDS011;29800;55.942;37.314;2023-06-26T06:48:35;6.55;;;5.32;;
44137;SDS011;29800;55.942;37.314;2023-06-26T06:51:01;6.55;;;4.90;;
44137;SDS011;29800;55.942;37.314;2023-06-26T06:53:28;11.02;;;5.30;;
44137;SDS011;29800;55.942;37.314;2023-06-26T06:55:54;8.32;;;5.28;;
44137;SDS011;29800;55.942;37.314;2023-06-26T06:58:20;9.38;;;5.82;;
44137;SDS011;29800;55.942;37.314;2023-06-26T07:00:46;9.57;;;5.80;;
44137;SDS011;29800;55.942;37.314;2023-06-26T07:03:13;7.45;;;5.60;;
44137;SDS011;29800;55.942;37.314;2023-06-26T07:05:41;7.75;;;6.00;;
44137;SDS011;29800;55.942;37.314;2023-06-26T07:08:07;10.40;;;6.40;;
44137;SDS011;29800;55.942;37.314;2023-06-26T07:10:34;8.27;;;5.55;;
44137;SDS011;29800;55.942;37.314;2023-06-26T07:13:01;8.07;;;5.40;;
44137;SDS011;29800;55.942;37.314;2023-06-26T07:15:27;7.82;;;5.90;;
44137;SDS011;29800;55.942;37.314;2023-06-26T07:17:54;8.00;;;5.38;;
44137;SDS011;29800;55.942;37.314;2023-06-26T07:20:20;6.35;;;4.97;;
44137;SDS011;29800;55.942;37.314;2023-06-26T07:22:46;8.52;;;6.07;;
44137;SDS011;29800;55.942;37.314;2023-06-26T07:25:13;7.50;;;5.15;;
44137;SDS011;29800;55.942;37.314;2023-06-26T07:27:40;6.53;;;4.55;;
44137;SDS011;29800;55.942;37.314;2023-06-26T07:30:07;7.97;;;4.88;;
44137;SDS011;29800;55.942;37.314;2023-06-26T07:32:37;7.60;;;5.18;;
44137;SDS011;29800;55.942;37.314;2023-06-26T07:35:04;8.55;;;5.05;;
44137;SDS011;29800;55.942;37.314;2023-06-26T07:37:32;7.30;;;4.45;;
44137;SDS011;29800;55.942;37.314;2023-06-26T07:39:58;8.70;;;5.05;;
44137;SDS011;29800;55.942;37.314;2023-06-26T07:42:24;9.68;;;4.90;;
44137;SDS011;29800;55.942;37.314;2023-06-26T07:44:50;7.85;;;5.13;;
44137;SDS011;29800;55.942;37.314;2023-06-26T07:47:17;6.65;;;4.60;;
44137;SDS011;29800;55.942;37.314;2023-06-26T07:49:43;7.93;;;4.63;;
44137;SDS011;29800;55.942;37.314;2023-06-26T07:52:10;9.90;;;4.93;;
44137;SDS011;29800;55.942;37.314;2023-06-26T07:54:37;6.15;;;4.88;;
44137;SDS011;29800;55.942;37.314;2023-06-26T07:57:04;6.07;;;4.47;;
44137;SDS011;29800;55.942;37.314;2023-06-26T07:59:33;5.68;;;4.13;;
44137;SDS011;29800;55.942;37.314;2023-06-26T08:01:59;7.88;;;5.43;;
44137;SDS011;29800;55.942;37.314;2023-06-26T08:04:26;8.95;;;4.88;;
44137;SDS011;29800;55.942;37.314;2023-06-26T08:06:53;5.53;;;4.28;;
44137;SDS011;29800;55.942;37.314;2023-06-26T08:09:21;6.18;;;4.63;;
44137;SDS011;29800;55.942;37.314;2023-06-26T08:11:52;8.43;;;4.32;;
44137;SDS011;29800;55.942;37.314;2023-06-26T08:14:18;6.93;;;4.30;;
44137;SDS011;29800;55.942;37.314;2023-06-26T08:16:45;5.35;;;4.00;;
44137;SDS011;29800;55.942;37.314;2023-06-26T08:19:12;6.63;;;4.45;;
44137;SDS011;29800;55.942;37.314;2023-06-26T08:21:42;5.95;;;4.32;;
44137;SDS011;29800;55.942;37.314;2023-06-26T08:24:10;6.68;;;4.60;;
44137;SDS011;29800;55.942;37.314;2023-06-26T08:26:37;6.18;;;4.68;;
44137;SDS011;29800;55.942;37.314;2023-06-26T08:29:03;6.88;;;4.22;;
44137;SDS011;29800;55.942;37.314;2023-06-26T08:31:35;4.90;;;4.35;;
44137;SDS011;29800;55.942;37.314;2023-06-26T08:34:02;8.13;;;4.40;;
44137;SDS011;29800;55.942;37.314;2023-06-26T08:36:29;5.85;;;4.30;;
44137;SDS011;29800;55.942;37.314;2023-06-26T08:38:56;7.28;;;5.00;;
44137;SDS011;29800;55.942;37.314;2023-06-26T08:41:23;7.63;;;4.75;;
44137;SDS011;29800;55.942;37.314;2023-06-26T08:43:50;8.48;;;4.45;;
44137;SDS011;29800;55.942;37.314;2023-06-26T08:46:19;5.80;;;5.15;;
44137;SDS011;29800;55.942;37.314;2023-06-26T08:48:49;6.65;;;4.53;;
44137;SDS011;29800;55.942;37.314;2023-06-26T08:51:23;5.90;;;4.93;;
44137;SDS011;29800;55.942;37.314;2023-06-26T08:53:58;5.38;;;4.47;;
44137;SDS011;29800;55.942;37.314;2023-06-26T08:56:31;7.88;;;5.10;;
44137;SDS011;29800;55.942;37.314;2023-06-26T08:59:01;5.53;;;4.90;;
44137;SDS011;29800;55.942;37.314;2023-06-26T09:01:28;7.18;;;4.80;;
44137;SDS011;29800;55.942;37.314;2023-06-26T09:03:54;8.27;;;4.68;;
44137;SDS011;29800;55.942;37.314;2023-06-26T09:06:20;7.88;;;5.40;;
44137;SDS011;29800;55.942;37.314;2023-06-26T09:08:47;7.85;;;4.80;;
44137;SDS011;29800;55.942;37.314;2023-06-26T09:11:13;7.10;;;4.63;;
44137;SDS011;29800;55.942;37.314;2023-06-26T09:13:40;8.80;;;4.72;;
44137;SDS011;29800;55.942;37.314;2023-06-26T09:16:06;6.90;;;4.93;;
44137;SDS011;29800;55.942;37.314;2023-06-26T09:18:36;7.25;;;4.82;;
44137;SDS011;29800;55.942;37.314;2023-06-26T09:21:08;5.72;;;4.80;;
44137;SDS011;29800;55.942;37.314;2023-06-26T09:23:36;5.93;;;4.57;;
44137;SDS011;29800;55.942;37.314;2023-06-26T09:26:03;5.32;;;4.30;;
44137;SDS011;29800;55.942;37.314;2023-06-26T09:28:32;7.70;;;4.70;;
44137;SDS011;29800;55.942;37.314;2023-06-26T09:31:06;8.35;;;4.72;;
44137;SDS011;29800;55.942;37.314;2023-06-26T09:33:34;6.65;;;5.00;;
44137;SDS011;29800;55.942;37.314;2023-06-26T09:36:05;6.53;;;4.78;;
44137;SDS011;29800;55.942;37.314;2023-06-26T09:38:33;6.78;;;5.30;;
44137;SDS011;29800;55.942;37.314;2023-06-26T09:41:01;6.93;;;4.70;;
44137;SDS011;29800;55.942;37.314;2023-06-26T09:43:29;8.88;;;5.10;;
44137;SDS011;29800;55.942;37.314;2023-06-26T09:45:57;7.15;;;5.07;;
44137;SDS011;29800;55.942;37.314;2023-06-26T09:48:24;6.22;;;4.70;;
44137;SDS011;29800;55.942;37.314;2023-06-26T09:50:51;6.38;;;4.82;;
44137;SDS011;29800;55.942;37.314;2023-06-26T09:53:17;7.45;;;5.30;;
44137;SDS011;29800;55.942;37.314;2023-06-26T09:55:44;6.65;;;4.72;;
44137;SDS011;29800;55.942;37.314;2023-06-26T09:58:11;7.90;;;4.93;;
44137;SDS011;29800;55.942;37.314;2023-06-26T10:00:42;9.18;;;5.18;;
44137;SDS011;29800;55.942;37.314;2023-06-26T10:03:10;5.65;;;4.65;;
44137;SDS011;29800;55.942;37.314;2023-06-26T10:05:40;6.03;;;4.90;;
44137;SDS011;29800;55.942;37.314;2023-06-26T10:08:07;6.55;;;4.75;;
44137;SDS011;29800;55.942;37.314;2023-06-26T10:10:37;6.75;;;4.72;;
44137;SDS011;29800;55.942;37.314;2023-06-26T10:13:06;6.15;;;4.18;;
44137;SDS011;29800;55.942;37.314;2023-06-26T10:15:37;7.20;;;4.95;;
44137;SDS011;29800;55.942;37.314;2023-06-26T10:18:06;12.18;;;4.97;;
44137;SDS011;29800;55.942;37.314;2023-06-26T10:20:32;6.55;;;4.88;;
44137;SDS011;29800;55.942;37.314;2023-06-26T10:23:00;13.07;;;8.90;;
44137;SDS011;29800;55.942;37.314;2023-06-26T10:25:30;10.27;;;7.65;;
44137;SDS011;29800;55.942;37.314;2023-06-26T10:27:58;9.13;;;5.72;;
44137;SDS011;29800;55.942;37.314;2023-06-26T10:30:28;6.53;;;5.20;;
44137;SDS011;29800;55.942;37.314;2023-06-26T10:32:59;7.20;;;5.05;;
44137;SDS011;29800;55.942;37.314;2023-06-26T10:35:26;9.35;;;6.10;;
44137;SDS011;29800;55.942;37.314;2023-06-26T10:37:54;7.22;;;5.22;;
44137;SDS011;29800;55.942;37.314;2023-06-26T10:40:27;7.18;;;4.65;;
44137;SDS011;29800;55.942;37.314;2023-06-26T10:43:06;6.28;;;4.97;;
44137;SDS011;29800;55.942;37.314;2023-06-26T10:45:34;9.68;;;5.60;;
44137;SDS011;29800;55.942;37.314;2023-06-26T10:48:02;9.70;;;5.10;;
44137;SDS011;29800;55.942;37.314;2023-06-26T10:50:33;6.75;;;4.93;;
44137;SDS011;29800;55.942;37.314;2023-06-26T10:53:10;9.40;;;5.50;;
44137;SDS011;29800;55.942;37.314;2023-06-26T10:55:37;8.35;;;5.10;;
44137;SDS011;29800;55.942;37.314;2023-06-26T10:58:26;7.18;;;5.15;;
44137;SDS011;29800;55.942;37.314;2023-06-26T11:04:00;6.55;;;4.90;;
44137;SDS011;29800;55.942;37.314;2023-06-26T11:06:30;5.50;;;4.63;;
44137;SDS011;29800;55.942;37.314;2023-06-26T11:09:01;6.45;;;4.70;;
44137;SDS011;29800;55.942;37.314;2023-06-26T11:14:20;7.88;;;4.53;;
44137;SDS011;29800;55.942;37.314;2023-06-26T11:16:47;7.22;;;4.80;;
44137;SDS011;29800;55.942;37.314;2023-06-26T11:19:19;7.72;;;4.38;;
44137;SDS011;29800;55.942;37.314;2023-06-26T11:21:46;8.40;;;5.05;;
44137;SDS011;29800;55.942;37.314;2023-06-26T11:24:13;6.20;;;4.78;;
44137;SDS011;29800;55.942;37.314;2023-06-26T11:26:43;7.85;;;4.80;;
44137;SDS011;29800;55.942;37.314;2023-06-26T11:29:11;7.68;;;4.85;;
44137;SDS011;29800;55.942;37.314;2023-06-26T11:31:38;5.90;;;4.65;;
44137;SDS011;29800;55.942;37.314;2023-06-26T11:34:06;7.20;;;4.60;;
44137;SDS011;29800;55.942;37.314;2023-06-26T11:36:38;6.65;;;4.88;;
44137;SDS011;29800;55.942;37.314;2023-06-26T11:39:07;10.02;;;5.00;;
44137;SDS011;29800;55.942;37.314;2023-06-26T11:41:35;6.50;;;4.30;;
44137;SDS011;29800;55.942;37.314;2023-06-26T11:44:02;5.53;;;4.53;;
44137;SDS011;29800;55.942;37.314;2023-06-26T11:46:30;6.63;;;4.80;;
44137;SDS011;29800;55.942;37.314;2023-06-26T11:48:57;7.07;;;4.70;;
44137;SDS011;29800;55.942;37.314;2023-06-26T11:51:26;7.70;;;4.90;;
44137;SDS011;29800;55.942;37.314;2023-06-26T11:53:54;7.25;;;5.30;;
44137;SDS011;29800;55.942;37.314;2023-06-26T11:56:20;7.70;;;4.85;;
44137;SDS011;29800;55.942;37.314;2023-06-26T11:59:01;5.72;;;4.38;;
44137;SDS011;29800;55.942;37.314;2023-06-26T12:01:33;6.82;;;4.70;;
44137;SDS011;29800;55.942;37.314;2023-06-26T12:04:09;7.85;;;4.90;;
44137;SDS011;29800;55.942;37.314;2023-06-26T12:06:38;6.72;;;5.25;;
44137;SDS011;29800;55.942;37.314;2023-06-26T12:09:07;5.80;;;4.70;;
44137;SDS011;29800;55.942;37.314;2023-06-26T12:11:39;6.63;;;4.80;;
44137;SDS011;29800;55.942;37.314;2023-06-26T12:14:08;7.53;;;4.82;;
44137;SDS011;29800;55.942;37.314;2023-06-26T12:16:36;7.38;;;4.80;;
44137;SDS011;29800;55.942;37.314;2023-06-26T12:19:04;8.20;;;4.72;;
44137;SDS011;29800;55.942;37.314;2023-06-26T12:24:04;7.55;;;5.18;;
44137;SDS011;29800;55.942;37.314;2023-06-26T12:26:31;8.45;;;4.78;;
44137;SDS011;29800;55.942;37.314;2023-06-26T12:29:16;6.47;;;4.38;;
44137;SDS011;29800;55.942;37.314;2023-06-26T12:31:45;6.10;;;4.18;;
44137;SDS011;29800;55.942;37.314;2023-06-26T12:34:21;5.60;;;4.60;;
44137;SDS011;29800;55.942;37.314;2023-06-26T12:36:52;8.43;;;4.35;;
44137;SDS011;29800;55.942;37.314;2023-06-26T12:39:20;10.25;;;5.03;;
44137;SDS011;29800;55.942;37.314;2023-06-26T12:41:53;6.43;;;4.28;;
44137;SDS011;29800;55.942;37.314;2023-06-26T12:44:23;10.43;;;4.07;;
44137;SDS011;29800;55.942;37.314;2023-06-26T12:47:01;7.18;;;4.25;;
44137;SDS011;29800;55.942;37.314;2023-06-26T12:49:38;10.38;;;4.43;;
44137;SDS011;29800;55.942;37.314;2023-06-26T12:52:06;6.38;;;4.30;;
44137;SDS011;29800;55.942;37.314;2023-06-26T12:54:40;9.45;;;5.00;;
44137;SDS011;29800;55.942;37.314;2023-06-26T12:57:09;11.73;;;6.30;;
44137;SDS011;29800;55.942;37.314;2023-06-26T12:59:36;10.63;;;6.13;;
44137;SDS011;29800;55.942;37.314;2023-06-26T13:02:03;7.93;;;5.53;;
44137;SDS011;29800;55.942;37.314;2023-06-26T13:04:30;7.30;;;5.03;;
44137;SDS011;29800;55.942;37.314;2023-06-26T13:06:57;8.15;;;5.28;;
44137;SDS011;29800;55.942;37.314;2023-06-26T13:09:23;8.55;;;4.70;;
44137;SDS011;29800;55.942;37.314;2023-06-26T13:11:53;6.53;;;4.75;;
44137;SDS011;29800;55.942;37.314;2023-06-26T13:14:20;14.10;;;5.30;;
44137;SDS011;29800;55.942;37.314;2023-06-26T13:16:47;6.95;;;4.93;;
44137;SDS011;29800;55.942;37.314;2023-06-26T13:19:13;6.00;;;4.75;;
44137;SDS011;29800;55.942;37.314;2023-06-26T13:21:39;12.05;;;5.15;;
44137;SDS011;29800;55.942;37.314;2023-06-26T13:24:06;7.93;;;4.68;;
44137;SDS011;29800;55.942;37.314;2023-06-26T13:26:32;9.73;;;5.20;;
44137;SDS011;29800;55.942;37.314;2023-06-26T13:28:59;10.30;;;5.90;;
44137;SDS011;29800;55.942;37.314;2023-06-26T13:31:25;6.90;;;5.75;;
44137;SDS011;29800;55.942;37.314;2023-06-26T13:33:52;10.88;;;7.13;;
44137;SDS011;29800;55.942;37.314;2023-06-26T13:36:19;8.63;;;6.90;;
44137;SDS011;29800;55.942;37.314;2023-06-26T13:38:46;8.98;;;5.13;;
44137;SDS011;29800;55.942;37.314;2023-06-26T13:41:15;6.15;;;4.78;;
44137;SDS011;29800;55.942;37.314;2023-06-26T13:43:42;7.80;;;4.85;;
44137;SDS011;29800;55.942;37.314;2023-06-26T13:46:08;7.32;;;5.13;;
44137;SDS011;29800;55.942;37.314;2023-06-26T13:48:34;8.10;;;4.63;;
44137;SDS011;29800;55.942;37.314;2023-06-26T13:51:01;6.25;;;4.57;;
44137;SDS011;29800;55.942;37.314;2023-06-26T13:53:27;6.75;;;4.47;;
44137;SDS011;29800;55.942;37.314;2023-06-26T13:55:53;7.95;;;4.90;;
44137;SDS011;29800;55.942;37.314;2023-06-26T13:58:20;6.43;;;4.32;;
44137;SDS011;29800;55.942;37.314;2023-06-26T14:00:52;6.82;;;5.00;;
44137;SDS011;29800;55.942;37.314;2023-06-26T14:03:19;8.13;;;4.18;;
44137;SDS011;29800;55.942;37.314;2023-06-26T14:05:45;6.07;;;4.88;;
44137;SDS011;29800;55.942;37.314;2023-06-26T14:08:12;6.78;;;4.90;;
44137;SDS011;29800;55.942;37.314;2023-06-26T14:10:39;5.53;;;4.53;;
44137;SDS011;29800;55.942;37.314;2023-06-26T14:13:06;6.72;;;5.13;;
44137;SDS011;29800;55.942;37.314;2023-06-26T14:15:34;7.20;;;5.30;;
44137;SDS011;29800;55.942;37.314;2023-06-26T14:18:01;6.78;;;4.55;;
44137;SDS011;29800;55.942;37.314;2023-06-26T14:20:28;7.18;;;5.20;;
44137;SDS011;29800;55.942;37.314;2023-06-26T14:22:56;6.68;;;4.57;;
44137;SDS011;29800;55.942;37.314;2023-06-26T14:25:22;6.07;;;4.60;;
44137;SDS011;29800;55.942;37.314;2023-06-26T14:27:48;9.25;;;4.50;;
44137;SDS011;29800;55.942;37.314;2023-06-26T14:30:14;6.88;;;4.25;;
44137;SDS011;29800;55.942;37.314;2023-06-26T14:32:41;8.70;;;4.75;;
44137;SDS011;29800;55.942;37.314;2023-06-26T14:35:07;9.48;;;6.38;;
44137;SDS011;29800;55.942;37.314;2023-06-26T14:37:35;6.20;;;4.30;;
44137;SDS011;29800;55.942;37.314;2023-06-26T14:40:08;7.32;;;4.63;;
44137;SDS011;29800;55.942;37.314;2023-06-26T14:42:35;7.47;;;4.30;;